sensor_id;sensor_type;location;lat;lon;timestamp;temperature;humidity
1359;DHT22;673;48.098;14.422;2023-02-05T00:01:46;-1.10;99.90
1359;DHT22;673;48.098;14.422;2023-02-05T00:04:15;-1.10;99.90
1359;DHT22;673;48.098;14.422;2023-02-05T00:06:42;-1.00;99.90
1359;DHT22;673;48.098;14.422;2023-02-05T00:09:09;-1.10;99.90
1359;DHT22;673;48.098;14.422;2023-02-05T00:11:36;-1.10;99.90
1359;DHT22;673;48.098;14.422;2023-02-05T00:14:03;-1.10;99.90
1359;DHT22;673;48.098;14.422;2023-02-05T00:16:29;-1.00;99.90
1359;DHT22;673;48.098;14.422;2023-02-05T00:18:56;-0.90;99.90
1359;DHT22;673;48.098;14.422;2023-02-05T00:21:25;-1.00;99.90
1359;DHT22;673;48.098;14.422;2023-02-05T00:23:52;-1.10;99.90
1359;DHT22;673;48.098;14.422;2023-02-05T00:26:19;-1.10;99.90
1359;DHT22;673;48.098;14.422;2023-02-05T00:28:46;-1.10;99.90
1359;DHT22;673;48.098;14.422;2023-02-05T00:31:17;-1.10;99.90
1359;DHT22;673;48.098;14.422;2023-02-05T00:33:46;-1.10;99.90
1359;DHT22;673;48.098;14.422;2023-02-05T00:36:14;-1.10;99.90
1359;DHT22;673;48.098;14.422;2023-02-05T00:38:43;-1.00;99.90
1359;DHT22;673;48.098;14.422;2023-02-05T00:41:11;-1.10;99.90
1359;DHT22;673;48.098;14.422;2023-02-05T00:43:38;-1.10;99.90
1359;DHT22;673;48.098;14.422;2023-02-05T00:46:05;-1.10;99.90
1359;DHT22;673;48.098;14.422;2023-02-05T00:48:32;-1.10;99.90
1359;DHT22;673;48.098;14.422;2023-02-05T00:50:59;-1.20;99.90
1359;DHT22;673;48.098;14.422;2023-02-05T00:53:26;-1.20;99.90
1359;DHT22;673;48.098;14.422;2023-02-05T00:55:55;-1.20;99.90
1359;DHT22;673;48.098;14.422;2023-02-05T00:58:22;-1.20;99.90
1359;DHT22;673;48.098;14.422;2023-02-05T01:00:50;-1.10;99.90
1359;DHT22;673;48.098;14.422;2023-02-05T01:03:17;-1.10;99.90
1359;DHT22;673;48.098;14.422;2023-02-05T01:05:44;-1.10;99.90
1359;DHT22;673;48.098;14.422;2023-02-05T01:08:11;-1.10;99.90
1359;DHT22;673;48.098;14.422;2023-02-05T01:10:42;-1.20;99.90
1359;DHT22;673;48.098;14.422;2023-02-05T01:13:11;-1.20;99.90
1359;DHT22;673;48.098;14.422;2023-02-05T01:15:38;-1.20;99.90
1359;DHT22;673;48.098;14.422;2023-02-05T01:18:06;-1.20;99.90
1359;DHT22;673;48.098;14.422;2023-02-05T01:20:35;-1.30;99.90
1359;DHT22;673;48.098;14.422;2023-02-05T01:23:02;-1.30;99.90
1359;DHT22;673;48.098;14.422;2023-02-05T01:25:29;-1.30;99.90
1359;DHT22;673;48.098;14.422;2023-02-05T01:27:56;-1.20;99.90
1359;DHT22;673;48.098;14.422;2023-02-05T01:30:25;-1.20;99.90
1359;DHT22;673;48.098;14.422;2023-02-05T01:32:52;-1.20;99.90
1359;DHT22;673;48.098;14.422;2023-02-05T01:35:19;-1.20;99.90
1359;DHT22;673;48.098;14.422;2023-02-05T01:37:46;-1.20;99.90
1359;DHT22;673;48.098;14.422;2023-02-05T01:40:13;-1.20;99.90
1359;DHT22;673;48.098;14.422;2023-02-05T01:42:41;-1.20;99.90
1359;DHT22;673;48.098;14.422;2023-02-05T01:48:21;-1.10;99.90
1359;DHT22;673;48.098;14.422;2023-02-05T01:50:52;-1.10;99.90
1359;DHT22;673;48.098;14.422;2023-02-05T01:53:23;-1.20;99.90
1359;DHT22;673;48.098;14.422;2023-02-05T01:55:55;-1.20;99.90
1359;DHT22;673;48.098;14.422;2023-02-05T01:58:24;-1.20;99.90
1359;DHT22;673;48.098;14.422;2023-02-05T02:00:52;-1.20;99.90
1359;DHT22;673;48.098;14.422;2023-02-05T02:03:21;-1.20;99.90
1359;DHT22;673;48.098;14.422;2023-02-05T02:05:52;-1.30;99.90
1359;DHT22;673;48.098;14.422;2023-02-05T02:08:19;-1.30;99.90
1359;DHT22;673;48.098;14.422;2023-02-05T02:10:47;-1.20;99.90
1359;DHT22;673;48.098;14.422;2023-02-05T02:13:18;-1.20;99.90
1359;DHT22;673;48.098;14.422;2023-02-05T02:15:46;-1.20;99.90
1359;DHT22;673;48.098;14.422;2023-02-05T02:18:14;-1.20;99.90
1359;DHT22;673;48.098;14.422;2023-02-05T02:23:55;-1.30;99.90
1359;DHT22;673;48.098;14.422;2023-02-05T02:26:47;-1.40;99.90
1359;DHT22;673;48.098;14.422;2023-02-05T02:29:24;-1.40;99.90
1359;DHT22;673;48.098;14.422;2023-02-05T02:31:58;-1.50;99.90
1359;DHT22;673;48.098;14.422;2023-02-05T02:34:30;-1.60;99.90
1359;DHT22;673;48.098;14.422;2023-02-05T02:37:02;-1.60;99.90
1359;DHT22;673;48.098;14.422;2023-02-05T02:39:37;-1.60;99.90
1359;DHT22;673;48.098;14.422;2023-02-05T02:42:08;-1.70;99.90
1359;DHT22;673;48.098;14.422;2023-02-05T02:44:41;-1.60;99.90
1359;DHT22;673;48.098;14.422;2023-02-05T02:47:13;-1.60;99.90
1359;DHT22;673;48.098;14.422;2023-02-05T02:49:45;-1.60;99.90
1359;DHT22;673;48.098;14.422;2023-02-05T02:52:15;-1.60;99.90
1359;DHT22;673;48.098;14.422;2023-02-05T02:54:46;-1.60;99.90
1359;DHT22;673;48.098;14.422;2023-02-05T02:57:15;-1.50;99.90
1359;DHT22;673;48.098;14.422;2023-02-05T02:59:47;-1.60;99.90
1359;DHT22;673;48.098;14.422;2023-02-05T03:02:15;-1.50;99.90
1359;DHT22;673;48.098;14.422;2023-02-05T03:04:45;-1.50;99.90
1359;DHT22;673;48.098;14.422;2023-02-05T03:07:17;-1.50;99.90
1359;DHT22;673;48.098;14.422;2023-02-05T03:09:49;-1.40;99.90
1359;DHT22;673;48.098;14.422;2023-02-05T03:12:17;-1.40;99.90
1359;DHT22;673;48.098;14.422;2023-02-05T03:14:45;-1.40;99.90
1359;DHT22;673;48.098;14.422;2023-02-05T03:17:14;-1.40;99.90
1359;DHT22;673;48.098;14.422;2023-02-05T03:19:44;-1.40;99.90
1359;DHT22;673;48.098;14.422;2023-02-05T03:22:12;-1.50;99.90
1359;DHT22;673;48.098;14.422;2023-02-05T03:24:39;-1.40;99.90
1359;DHT22;673;48.098;14.422;2023-02-05T03:27:07;-1.50;99.90
1359;DHT22;673;48.098;14.422;2023-02-05T03:29:36;-1.40;99.90
1359;DHT22;673;48.098;14.422;2023-02-05T03:32:18;-1.50;99.90
1359;DHT22;673;48.098;14.422;2023-02-05T03:34:59;-1.40;99.90
1359;DHT22;673;48.098;14.422;2023-02-05T03:37:35;-1.50;99.90
1359;DHT22;673;48.098;14.422;2023-02-05T03:40:11;-1.60;99.90
1359;DHT22;673;48.098;14.422;2023-02-05T03:42:47;-1.70;99.90
1359;DHT22;673;48.098;14.422;2023-02-05T03:45:27;-1.70;99.90
1359;DHT22;673;48.098;14.422;2023-02-05T03:48:18;-1.80;99.90
1359;DHT22;673;48.098;14.422;2023-02-05T03:50:51;-1.80;99.90
1359;DHT22;673;48.098;14.422;2023-02-05T03:53:22;-1.90;99.90
1359;DHT22;673;48.098;14.422;2023-02-05T03:55:57;-2.00;99.90
1359;DHT22;673;48.098;14.422;2023-02-05T03:58:28;-2.00;99.90
1359;DHT22;673;48.098;14.422;2023-02-05T04:00:56;-2.00;99.90
1359;DHT22;673;48.098;14.422;2023-02-05T04:03:25;-2.10;99.90
1359;DHT22;673;48.098;14.422;2023-02-05T04:05:52;-2.10;99.90
1359;DHT22;673;48.098;14.422;2023-02-05T04:08:19;-2.20;99.90
1359;DHT22;673;48.098;14.422;2023-02-05T04:10:46;-2.20;99.90
1359;DHT22;673;48.098;14.422;2023-02-05T04:13:13;-2.20;99.90
1359;DHT22;673;48.098;14.422;2023-02-05T04:15:40;-2.20;99.90
1359;DHT22;673;48.098;14.422;2023-02-05T04:18:07;-2.30;99.90
1359;DHT22;673;48.098;14.422;2023-02-05T04:20:35;-2.20;99.90
1359;DHT22;673;48.098;14.422;2023-02-05T04:23:02;-2.20;99.90
1359;DHT22;673;48.098;14.422;2023-02-05T04:25:29;-2.20;99.90
1359;DHT22;673;48.098;14.422;2023-02-05T04:27:57;-2.20;99.90
1359;DHT22;673;48.098;14.422;2023-02-05T04:30:24;-2.20;99.90
1359;DHT22;673;48.098;14.422;2023-02-05T04:32:51;-2.30;99.90
1359;DHT22;673;48.098;14.422;2023-02-05T04:35:18;-2.30;99.90
1359;DHT22;673;48.098;14.422;2023-02-05T04:37:46;-2.30;99.90
1359;DHT22;673;48.098;14.422;2023-02-05T04:40:13;-2.30;99.90
1359;DHT22;673;48.098;14.422;2023-02-05T04:42:40;-2.30;99.90
1359;DHT22;673;48.098;14.422;2023-02-05T04:45:08;-2.20;99.90
1359;DHT22;673;48.098;14.422;2023-02-05T04:47:35;-2.20;99.90
1359;DHT22;673;48.098;14.422;2023-02-05T04:50:02;-2.20;99.90
1359;DHT22;673;48.098;14.422;2023-02-05T04:52:29;-2.30;99.90
1359;DHT22;673;48.098;14.422;2023-02-05T04:54:58;-2.20;99.90
1359;DHT22;673;48.098;14.422;2023-02-05T04:57:25;-2.20;99.90
1359;DHT22;673;48.098;14.422;2023-02-05T04:59:51;-2.20;99.90
1359;DHT22;673;48.098;14.422;2023-02-05T05:02:18;-2.20;99.90
1359;DHT22;673;48.098;14.422;2023-02-05T05:04:45;-2.10;99.90
1359;DHT22;673;48.098;14.422;2023-02-05T05:07:12;-2.10;99.90
1359;DHT22;673;48.098;14.422;2023-02-05T05:09:41;-2.10;99.90
1359;DHT22;673;48.098;14.422;2023-02-05T05:12:09;-2.20;99.90
1359;DHT22;673;48.098;14.422;2023-02-05T05:14:36;-2.20;99.90
1359;DHT22;673;48.098;14.422;2023-02-05T05:17:03;-2.20;99.90
1359;DHT22;673;48.098;14.422;2023-02-05T05:19:30;-2.20;99.90
1359;DHT22;673;48.098;14.422;2023-02-05T05:21:58;-2.20;99.90
1359;DHT22;673;48.098;14.422;2023-02-05T05:24:25;-2.20;99.90
1359;DHT22;673;48.098;14.422;2023-02-05T05:26:52;-2.30;99.90
1359;DHT22;673;48.098;14.422;2023-02-05T05:29:20;-2.30;99.90
1359;DHT22;673;48.098;14.422;2023-02-05T05:31:51;-2.30;99.90
1359;DHT22;673;48.098;14.422;2023-02-05T05:34:18;-2.40;99.90
1359;DHT22;673;48.098;14.422;2023-02-05T05:36:45;-2.40;99.90
1359;DHT22;673;48.098;14.422;2023-02-05T05:39:12;-2.40;99.90
1359;DHT22;673;48.098;14.422;2023-02-05T05:41:57;-2.40;99.90
1359;DHT22;673;48.098;14.422;2023-02-05T05:44:43;-2.40;99.90
1359;DHT22;673;48.098;14.422;2023-02-05T05:47:14;-2.50;99.90
1359;DHT22;673;48.098;14.422;2023-02-05T05:49:42;-2.50;99.90
1359;DHT22;673;48.098;14.422;2023-02-05T05:52:09;-2.50;99.90
1359;DHT22;673;48.098;14.422;2023-02-05T05:54:36;-2.50;99.90
1359;DHT22;673;48.098;14.422;2023-02-05T05:57:03;-2.50;99.90
1359;DHT22;673;48.098;14.422;2023-02-05T05:59:30;-2.50;99.90
1359;DHT22;673;48.098;14.422;2023-02-05T06:02:00;-2.60;99.90
1359;DHT22;673;48.098;14.422;2023-02-05T06:04:27;-2.60;99.90
1359;DHT22;673;48.098;14.422;2023-02-05T06:06:54;-2.60;99.90
1359;DHT22;673;48.098;14.422;2023-02-05T06:09:21;-2.60;99.90
1359;DHT22;673;48.098;14.422;2023-02-05T06:11:49;-2.60;99.90
1359;DHT22;673;48.098;14.422;2023-02-05T06:14:16;-2.60;99.90
1359;DHT22;673;48.098;14.422;2023-02-05T06:16:43;-2.60;99.90
1359;DHT22;673;48.098;14.422;2023-02-05T06:19:12;-2.70;99.90
1359;DHT22;673;48.098;14.422;2023-02-05T06:21:39;-2.70;99.90
1359;DHT22;673;48.098;14.422;2023-02-05T06:24:06;-2.70;99.90
1359;DHT22;673;48.098;14.422;2023-02-05T06:26:33;-2.80;99.90
1359;DHT22;673;48.098;14.422;2023-02-05T06:28:59;-2.80;99.90
1359;DHT22;673;48.098;14.422;2023-02-05T06:31:28;-2.80;99.90
1359;DHT22;673;48.098;14.422;2023-02-05T06:33:55;-2.80;99.90
1359;DHT22;673;48.098;14.422;2023-02-05T06:36:24;-2.90;99.90
1359;DHT22;673;48.098;14.422;2023-02-05T06:38:51;-2.90;99.90
1359;DHT22;673;48.098;14.422;2023-02-05T06:41:18;-2.90;99.90
1359;DHT22;673;48.098;14.422;2023-02-05T06:43:45;-2.90;99.90
1359;DHT22;673;48.098;14.422;2023-02-05T06:46:12;-2.80;99.90
1359;DHT22;673;48.098;14.422;2023-02-05T06:48:39;-2.80;99.90
1359;DHT22;673;48.098;14.422;2023-02-05T06:51:06;-2.80;99.90
1359;DHT22;673;48.098;14.422;2023-02-05T06:53:34;-2.80;99.90
1359;DHT22;673;48.098;14.422;2023-02-05T06:56:02;-2.80;99.90
1359;DHT22;673;48.098;14.422;2023-02-05T06:58:29;-2.90;99.90
1359;DHT22;673;48.098;14.422;2023-02-05T07:00:56;-2.80;99.90
1359;DHT22;673;48.098;14.422;2023-02-05T07:03:23;-2.80;99.90
1359;DHT22;673;48.098;14.422;2023-02-05T07:05:50;-2.80;99.90
1359;DHT22;673;48.098;14.422;2023-02-05T07:08:16;-2.80;99.90
1359;DHT22;673;48.098;14.422;2023-02-05T07:10:45;-2.80;99.90
1359;DHT22;673;48.098;14.422;2023-02-05T07:13:12;-2.80;99.90
1359;DHT22;673;48.098;14.422;2023-02-05T07:15:39;-2.80;99.90
1359;DHT22;673;48.098;14.422;2023-02-05T07:18:06;-2.70;99.90
1359;DHT22;673;48.098;14.422;2023-02-05T07:20:34;-2.60;99.90
1359;DHT22;673;48.098;14.422;2023-02-05T07:23:01;-2.50;99.90
1359;DHT22;673;48.098;14.422;2023-02-05T07:25:30;-2.50;99.90
1359;DHT22;673;48.098;14.422;2023-02-05T07:28:03;-2.40;99.90
1359;DHT22;673;48.098;14.422;2023-02-05T07:30:30;-2.30;99.90
1359;DHT22;673;48.098;14.422;2023-02-05T07:32:57;-2.20;99.90
1359;DHT22;673;48.098;14.422;2023-02-05T07:35:25;-2.20;99.90
1359;DHT22;673;48.098;14.422;2023-02-05T07:37:52;-2.10;99.90
1359;DHT22;673;48.098;14.422;2023-02-05T07:40:19;-2.00;99.90
1359;DHT22;673;48.098;14.422;2023-02-05T07:42:46;-1.90;99.90
1359;DHT22;673;48.098;14.422;2023-02-05T07:45:14;-1.90;99.90
1359;DHT22;673;48.098;14.422;2023-02-05T07:47:41;-1.80;99.90
1359;DHT22;673;48.098;14.422;2023-02-05T07:50:08;-1.70;99.90
1359;DHT22;673;48.098;14.422;2023-02-05T07:52:35;-1.60;99.90
1359;DHT22;673;48.098;14.422;2023-02-05T07:55:02;-1.60;99.90
1359;DHT22;673;48.098;14.422;2023-02-05T07:57:29;-1.50;99.90
1359;DHT22;673;48.098;14.422;2023-02-05T07:59:56;-1.40;99.90
1359;DHT22;673;48.098;14.422;2023-02-05T08:02:24;-1.30;99.90
1359;DHT22;673;48.098;14.422;2023-02-05T08:04:51;-1.20;99.90
1359;DHT22;673;48.098;14.422;2023-02-05T08:07:18;-1.20;99.90
1359;DHT22;673;48.098;14.422;2023-02-05T08:09:45;-1.10;99.90
1359;DHT22;673;48.098;14.422;2023-02-05T08:12:12;-1.00;99.90
1359;DHT22;673;48.098;14.422;2023-02-05T08:14:39;-0.90;99.90
1359;DHT22;673;48.098;14.422;2023-02-05T08:17:06;-0.90;99.90
1359;DHT22;673;48.098;14.422;2023-02-05T08:19:35;-0.90;99.90
1359;DHT22;673;48.098;14.422;2023-02-05T08:22:02;-0.90;99.90
1359;DHT22;673;48.098;14.422;2023-02-05T08:24:30;-0.80;99.90
1359;DHT22;673;48.098;14.422;2023-02-05T08:26:57;-0.70;99.90
1359;DHT22;673;48.098;14.422;2023-02-05T08:29:24;-0.70;99.90
1359;DHT22;673;48.098;14.422;2023-02-05T08:31:51;-0.70;99.90
1359;DHT22;673;48.098;14.422;2023-02-05T08:34:17;-0.60;99.90
1359;DHT22;673;48.098;14.422;2023-02-05T08:36:46;-0.60;99.90
1359;DHT22;673;48.098;14.422;2023-02-05T08:39:13;-0.50;99.90
1359;DHT22;673;48.098;14.422;2023-02-05T08:41:40;-0.40;99.90
1359;DHT22;673;48.098;14.422;2023-02-05T08:44:07;-0.30;99.90
1359;DHT22;673;48.098;14.422;2023-02-05T08:46:34;-0.40;99.90
1359;DHT22;673;48.098;14.422;2023-02-05T08:49:01;-0.40;99.90
1359;DHT22;673;48.098;14.422;2023-02-05T08:51:28;-0.40;99.90
1359;DHT22;673;48.098;14.422;2023-02-05T08:53:56;-0.30;99.90
1359;DHT22;673;48.098;14.422;2023-02-05T08:56:24;-0.40;99.90
1359;DHT22;673;48.098;14.422;2023-02-05T08:58:51;-0.30;99.90
1359;DHT22;673;48.098;14.422;2023-02-05T09:01:18;-0.10;99.90
1359;DHT22;673;48.098;14.422;2023-02-05T09:03:45;-0.10;99.90
1359;DHT22;673;48.098;14.422;2023-02-05T09:06:14;-0.10;99.90
1359;DHT22;673;48.098;14.422;2023-02-05T09:08:41;-0.10;99.90
1359;DHT22;673;48.098;14.422;2023-02-05T09:11:10;-0.10;99.90
1359;DHT22;673;48.098;14.422;2023-02-05T09:13:38;0.10;99.90
1359;DHT22;673;48.098;14.422;2023-02-05T09:16:08;0.00;99.90
1359;DHT22;673;48.098;14.422;2023-02-05T09:18:35;0.00;99.90
1359;DHT22;673;48.098;14.422;2023-02-05T09:21:05;0.00;99.90
1359;DHT22;673;48.098;14.422;2023-02-05T09:23:33;0.10;99.90
1359;DHT22;673;48.098;14.422;2023-02-05T09:26:00;0.10;99.90
1359;DHT22;673;48.098;14.422;2023-02-05T09:28:29;0.20;99.90
1359;DHT22;673;48.098;14.422;2023-02-05T09:30:56;0.10;99.90
1359;DHT22;673;48.098;14.422;2023-02-05T09:33:22;0.30;99.90
1359;DHT22;673;48.098;14.422;2023-02-05T09:35:49;0.40;99.90
1359;DHT22;673;48.098;14.422;2023-02-05T09:38:16;0.50;99.90
1359;DHT22;673;48.098;14.422;2023-02-05T09:40:52;0.40;99.90
1359;DHT22;673;48.098;14.422;2023-02-05T09:43:32;0.40;99.90
1359;DHT22;673;48.098;14.422;2023-02-05T09:46:06;0.60;99.90
1359;DHT22;673;48.098;14.422;2023-02-05T09:48:46;0.60;99.90
1359;DHT22;673;48.098;14.422;2023-02-05T09:51:22;0.70;99.90
1359;DHT22;673;48.098;14.422;2023-02-05T09:53:54;0.80;99.90
1359;DHT22;673;48.098;14.422;2023-02-05T09:56:24;0.50;99.90
1359;DHT22;673;48.098;14.422;2023-02-05T09:58:55;0.40;99.90
1359;DHT22;673;48.098;14.422;2023-02-05T10:01:32;0.40;99.90
1359;DHT22;673;48.098;14.422;2023-02-05T10:04:02;0.60;99.90
1359;DHT22;673;48.098;14.422;2023-02-05T10:06:51;0.40;99.90
1359;DHT22;673;48.098;14.422;2023-02-05T10:09:37;0.50;99.90
1359;DHT22;673;48.098;14.422;2023-02-05T10:12:13;0.50;99.90
1359;DHT22;673;48.098;14.422;2023-02-05T10:14:51;0.50;99.90
1359;DHT22;673;48.098;14.422;2023-02-05T10:17:36;0.50;99.90
1359;DHT22;673;48.098;14.422;2023-02-05T10:20:19;0.50;99.90
1359;DHT22;673;48.098;14.422;2023-02-05T10:23:01;0.60;99.90
1359;DHT22;673;48.098;14.422;2023-02-05T10:25:57;0.60;99.90
1359;DHT22;673;48.098;14.422;2023-02-05T10:28:57;0.60;99.90
1359;DHT22;673;48.098;14.422;2023-02-05T10:31:41;0.80;99.90
1359;DHT22;673;48.098;14.422;2023-02-05T10:34:18;0.90;99.90
1359;DHT22;673;48.098;14.422;2023-02-05T10:36:49;0.80;99.90
1359;DHT22;673;48.098;14.422;2023-02-05T10:39:20;1.00;99.90
1359;DHT22;673;48.098;14.422;2023-02-05T10:41:51;1.10;99.90
1359;DHT22;673;48.098;14.422;2023-02-05T10:44:23;1.10;99.90
1359;DHT22;673;48.098;14.422;2023-02-05T10:46:56;1.00;99.90
1359;DHT22;673;48.098;14.422;2023-02-05T10:49:36;1.00;99.90
1359;DHT22;673;48.098;14.422;2023-02-05T10:52:09;1.00;99.90
1359;DHT22;673;48.098;14.422;2023-02-05T10:54:37;1.10;99.90
1359;DHT22;673;48.098;14.422;2023-02-05T10:57:12;1.10;99.90
1359;DHT22;673;48.098;14.422;2023-02-05T10:59:48;1.10;99.90
1359;DHT22;673;48.098;14.422;2023-02-05T11:02:19;1.20;99.90
1359;DHT22;673;48.098;14.422;2023-02-05T11:04:51;1.30;99.90
1359;DHT22;673;48.098;14.422;2023-02-05T11:07:24;1.50;99.90
1359;DHT22;673;48.098;14.422;2023-02-05T11:09:51;1.50;99.90
1359;DHT22;673;48.098;14.422;2023-02-05T11:12:25;1.60;99.90
1359;DHT22;673;48.098;14.422;2023-02-05T11:14:56;1.60;99.90
1359;DHT22;673;48.098;14.422;2023-02-05T11:17:28;1.70;99.90
1359;DHT22;673;48.098;14.422;2023-02-05T11:19:59;1.90;99.90
1359;DHT22;673;48.098;14.422;2023-02-05T11:22:28;1.80;99.10
1359;DHT22;673;48.098;14.422;2023-02-05T11:25:11;1.70;99.30
1359;DHT22;673;48.098;14.422;2023-02-05T11:27:39;1.70;99.30
1359;DHT22;673;48.098;14.422;2023-02-05T11:30:21;1.80;99.20
1359;DHT22;673;48.098;14.422;2023-02-05T11:32:51;1.60;97.60
1359;DHT22;673;48.098;14.422;2023-02-05T11:35:22;1.60;98.30
1359;DHT22;673;48.098;14.422;2023-02-05T11:37:57;1.80;98.90
1359;DHT22;673;48.098;14.422;2023-02-05T11:40:26;1.80;98.40
1359;DHT22;673;48.098;14.422;2023-02-05T11:43:07;2.00;98.30
1359;DHT22;673;48.098;14.422;2023-02-05T11:45:37;1.90;97.40
1359;DHT22;673;48.098;14.422;2023-02-05T11:48:19;2.10;98.90
1359;DHT22;673;48.098;14.422;2023-02-05T11:50:47;2.10;98.70
1359;DHT22;673;48.098;14.422;2023-02-05T11:53:15;2.00;98.00
1359;DHT22;673;48.098;14.422;2023-02-05T11:55:44;2.00;98.70
1359;DHT22;673;48.098;14.422;2023-02-05T11:58:21;2.00;98.50
1359;DHT22;673;48.098;14.422;2023-02-05T12:00:53;2.20;98.60
1359;DHT22;673;48.098;14.422;2023-02-05T12:03:24;2.40;99.30
1359;DHT22;673;48.098;14.422;2023-02-05T12:05:59;2.60;99.90
1359;DHT22;673;48.098;14.422;2023-02-05T12:08:39;2.60;99.60
1359;DHT22;673;48.098;14.422;2023-02-05T12:11:24;2.70;99.00
1359;DHT22;673;48.098;14.422;2023-02-05T12:14:02;2.70;98.70
1359;DHT22;673;48.098;14.422;2023-02-05T12:16:41;2.80;97.70
1359;DHT22;673;48.098;14.422;2023-02-05T12:19:16;2.90;97.60
1359;DHT22;673;48.098;14.422;2023-02-05T12:21:49;2.90;96.30
1359;DHT22;673;48.098;14.422;2023-02-05T12:27:19;2.70;96.60
1359;DHT22;673;48.098;14.422;2023-02-05T12:30:01;2.70;97.20
1359;DHT22;673;48.098;14.422;2023-02-05T12:32:38;2.60;96.90
1359;DHT22;673;48.098;14.422;2023-02-05T12:35:31;2.50;97.90
1359;DHT22;673;48.098;14.422;2023-02-05T12:38:07;2.70;95.50
1359;DHT22;673;48.098;14.422;2023-02-05T12:40:50;2.80;97.50
1359;DHT22;673;48.098;14.422;2023-02-05T12:43:30;2.80;97.40
1359;DHT22;673;48.098;14.422;2023-02-05T12:49:02;2.70;95.90
1359;DHT22;673;48.098;14.422;2023-02-05T12:51:52;2.50;95.90
1359;DHT22;673;48.098;14.422;2023-02-05T12:54:33;2.40;96.40
1359;DHT22;673;48.098;14.422;2023-02-05T12:57:05;2.50;96.40
1359;DHT22;673;48.098;14.422;2023-02-05T12:59:38;2.60;95.30
1359;DHT22;673;48.098;14.422;2023-02-05T13:02:18;2.30;95.00
1359;DHT22;673;48.098;14.422;2023-02-05T13:04:51;2.30;95.60
1359;DHT22;673;48.098;14.422;2023-02-05T13:07:29;2.20;96.20
1359;DHT22;673;48.098;14.422;2023-02-05T13:10:00;2.40;96.40
1359;DHT22;673;48.098;14.422;2023-02-05T13:12:33;2.50;96.00
1359;DHT22;673;48.098;14.422;2023-02-05T13:15:13;2.70;96.10
1359;DHT22;673;48.098;14.422;2023-02-05T13:17:44;2.70;95.80
1359;DHT22;673;48.098;14.422;2023-02-05T13:20:21;2.60;94.30
1359;DHT22;673;48.098;14.422;2023-02-05T13:23:12;2.50;93.60
1359;DHT22;673;48.098;14.422;2023-02-05T13:25:57;2.60;95.50
1359;DHT22;673;48.098;14.422;2023-02-05T13:28:45;2.60;96.50
1359;DHT22;673;48.098;14.422;2023-02-05T13:31:29;2.30;94.60
1359;DHT22;673;48.098;14.422;2023-02-05T13:34:02;2.40;95.40
1359;DHT22;673;48.098;14.422;2023-02-05T13:40:00;2.20;95.50
1359;DHT22;673;48.098;14.422;2023-02-05T13:42:51;2.10;94.80
1359;DHT22;673;48.098;14.422;2023-02-05T13:45:30;2.00;95.60
1359;DHT22;673;48.098;14.422;2023-02-05T13:48:27;2.00;95.40
1359;DHT22;673;48.098;14.422;2023-02-05T13:51:18;2.00;95.60
1359;DHT22;673;48.098;14.422;2023-02-05T13:54:02;1.90;94.90
1359;DHT22;673;48.098;14.422;2023-02-05T13:56:43;1.90;93.70
1359;DHT22;673;48.098;14.422;2023-02-05T13:59:15;2.00;94.20
1359;DHT22;673;48.098;14.422;2023-02-05T14:01:49;2.00;93.80
1359;DHT22;673;48.098;14.422;2023-02-05T14:04:21;2.00;94.40
1359;DHT22;673;48.098;14.422;2023-02-05T14:06:58;1.90;93.60
1359;DHT22;673;48.098;14.422;2023-02-05T14:09:33;1.80;93.90
1359;DHT22;673;48.098;14.422;2023-02-05T14:12:03;1.80;93.40
1359;DHT22;673;48.098;14.422;2023-02-05T14:14:32;1.80;93.80
1359;DHT22;673;48.098;14.422;2023-02-05T14:17:02;1.80;93.80
1359;DHT22;673;48.098;14.422;2023-02-05T14:19:49;1.80;94.60
1359;DHT22;673;48.098;14.422;2023-02-05T14:22:39;1.90;93.50
1359;DHT22;673;48.098;14.422;2023-02-05T14:28:48;1.80;94.10
1359;DHT22;673;48.098;14.422;2023-02-05T14:34:46;1.80;94.60
1359;DHT22;673;48.098;14.422;2023-02-05T14:37:37;1.70;94.20
1359;DHT22;673;48.098;14.422;2023-02-05T14:40:23;1.60;93.80
1359;DHT22;673;48.098;14.422;2023-02-05T14:42:54;1.50;91.00
1359;DHT22;673;48.098;14.422;2023-02-05T14:45:25;1.40;91.80
1359;DHT22;673;48.098;14.422;2023-02-05T14:47:54;1.50;91.90
1359;DHT22;673;48.098;14.422;2023-02-05T14:50:24;1.50;92.40
1359;DHT22;673;48.098;14.422;2023-02-05T14:52:55;1.60;92.70
1359;DHT22;673;48.098;14.422;2023-02-05T14:55:26;1.60;93.00
1359;DHT22;673;48.098;14.422;2023-02-05T14:57:58;1.50;92.90
1359;DHT22;673;48.098;14.422;2023-02-05T15:00:33;1.60;93.00
1359;DHT22;673;48.098;14.422;2023-02-05T15:03:25;1.50;92.20
1359;DHT22;673;48.098;14.422;2023-02-05T15:06:00;1.40;92.80
1359;DHT22;673;48.098;14.422;2023-02-05T15:08:47;1.40;93.30
1359;DHT22;673;48.098;14.422;2023-02-05T15:11:23;1.40;93.90
1359;DHT22;673;48.098;14.422;2023-02-05T15:20:18;1.20;94.60
1359;DHT22;673;48.098;14.422;2023-02-05T15:22:51;1.20;94.10
1359;DHT22;673;48.098;14.422;2023-02-05T15:25:29;1.00;94.60
1359;DHT22;673;48.098;14.422;2023-02-05T15:28:00;0.90;94.30
1359;DHT22;673;48.098;14.422;2023-02-05T15:30:32;0.90;94.60
1359;DHT22;673;48.098;14.422;2023-02-05T15:33:06;0.80;94.80
1359;DHT22;673;48.098;14.422;2023-02-05T15:35:42;0.70;95.30
1359;DHT22;673;48.098;14.422;2023-02-05T15:38:22;0.60;96.30
1359;DHT22;673;48.098;14.422;2023-02-05T15:40:51;0.50;96.50
1359;DHT22;673;48.098;14.422;2023-02-05T15:43:20;0.40;96.70
1359;DHT22;673;48.098;14.422;2023-02-05T15:45:49;0.30;96.70
1359;DHT22;673;48.098;14.422;2023-02-05T15:48:22;0.10;96.60
1359;DHT22;673;48.098;14.422;2023-02-05T15:50:53;0.10;97.10
1359;DHT22;673;48.098;14.422;2023-02-05T15:53:30;-0.10;97.30
1359;DHT22;673;48.098;14.422;2023-02-05T15:55:59;-0.20;98.00
1359;DHT22;673;48.098;14.422;2023-02-05T15:58:28;-0.20;98.00
1359;DHT22;673;48.098;14.422;2023-02-05T16:00:56;-0.20;98.00
1359;DHT22;673;48.098;14.422;2023-02-05T16:03:26;-0.20;98.20
1359;DHT22;673;48.098;14.422;2023-02-05T16:05:58;-0.20;98.60
1359;DHT22;673;48.098;14.422;2023-02-05T16:08:26;-0.20;99.00
1359;DHT22;673;48.098;14.422;2023-02-05T16:10:55;-0.40;99.20
1359;DHT22;673;48.098;14.422;2023-02-05T16:13:24;-0.50;99.40
1359;DHT22;673;48.098;14.422;2023-02-05T16:15:57;-0.50;99.30
1359;DHT22;673;48.098;14.422;2023-02-05T16:18:31;-0.60;99.30
1359;DHT22;673;48.098;14.422;2023-02-05T16:21:04;-0.60;99.40
1359;DHT22;673;48.098;14.422;2023-02-05T16:23:36;-0.50;99.40
1359;DHT22;673;48.098;14.422;2023-02-05T16:26:10;-0.60;99.50
1359;DHT22;673;48.098;14.422;2023-02-05T16:28:42;-0.70;99.90
1359;DHT22;673;48.098;14.422;2023-02-05T16:31:15;-0.70;99.90
1359;DHT22;673;48.098;14.422;2023-02-05T16:33:47;-0.70;99.80
1359;DHT22;673;48.098;14.422;2023-02-05T16:36:19;-0.70;99.90
1359;DHT22;673;48.098;14.422;2023-02-05T16:38:51;-0.80;99.90
1359;DHT22;673;48.098;14.422;2023-02-05T16:41:22;-0.80;99.90
1359;DHT22;673;48.098;14.422;2023-02-05T16:43:50;-0.80;99.90
1359;DHT22;673;48.098;14.422;2023-02-05T16:46:24;-0.90;99.90
1359;DHT22;673;48.098;14.422;2023-02-05T16:48:54;-1.00;99.90
1359;DHT22;673;48.098;14.422;2023-02-05T16:51:32;-1.20;99.90
1359;DHT22;673;48.098;14.422;2023-02-05T16:54:01;-1.30;99.90
1359;DHT22;673;48.098;14.422;2023-02-05T16:56:29;-1.40;99.90
1359;DHT22;673;48.098;14.422;2023-02-05T16:58:59;-1.40;99.90
1359;DHT22;673;48.098;14.422;2023-02-05T17:01:30;-1.50;99.90
1359;DHT22;673;48.098;14.422;2023-02-05T17:03:57;-1.60;99.90